Time;durP1;ratioP1;P1;durP2;ratioP2;P2;SDS_P1;SDS_P2;PMS_P1;PMS_P2;Temp;Humidity;BMP_temperature;BMP_pressure;BME280_temperature;BME280_humidity;BME280_pressure;Samples;Min_cycle;Max_cycle;Signal;HPM_P1;HPM_P2
2023/03/18 00:00:23;;;;;;;1.87;1.77;;;;;;;;;;5052456;28;20418;-60
2023/03/18 00:02:51;;;;;;;1.83;1.70;;;;;;;;;;5052385;28;20473;-61
2023/03/18 00:05:19;;;;;;;3.57;2.07;;;;;;;;;;5052179;28;20830;-62
2023/03/18 00:07:46;;;;;;;1.87;1.77;;;;;;;;;;5051935;28;20484;-62
2023/03/18 00:10:12;;;;;;;2.97;1.70;;;;;;;;;;5052061;28;20415;-60
2023/03/18 00:12:39;;;;;;;4.23;2.10;;;;;;;;;;5051670;28;20468;-61
2023/03/18 00:15:07;;;;;;;3.83;1.70;;;;;;;;;;5052220;28;20439;-61
2023/03/18 00:17:33;;;;;;;3.17;2.17;;;;;;;;;;5051735;28;20418;-59
2023/03/18 00:20:04;;;;;;;1.50;1.50;;;;;;;;;;5052082;28;20424;-60
2023/03/18 00:22:31;;;;;;;2.63;1.63;;;;;;;;;;5052059;28;20809;-60
2023/03/18 00:24:59;;;;;;;2.60;1.70;;;;;;;;;;5051676;28;20423;-61
2023/03/18 00:27:28;;;;;;;2.00;1.43;;;;;;;;;;5052062;28;20408;-61
2023/03/18 00:29:54;;;;;;;2.33;2.13;;;;;;;;;;5051734;28;20442;-61
2023/03/18 00:32:21;;;;;;;3.67;2.33;;;;;;;;;;5051879;28;20497;-60
2023/03/18 00:34:48;;;;;;;3.23;1.80;;;;;;;;;;5051551;28;20476;-60
2023/03/18 00:37:26;;;;;;;3.97;2.40;;;;;;;;;;5051848;28;20489;-61
2023/03/18 00:39:52;;;;;;;1.50;1.50;;;;;;;;;;5051766;28;20445;-61
2023/03/18 00:42:22;;;;;;;2.00;1.90;;;;;;;;;;5051849;28;20591;-61
2023/03/18 00:44:48;;;;;;;2.50;2.30;;;;;;;;;;5051743;28;20430;-62
2023/03/18 00:47:14;;;;;;;2.23;1.70;;;;;;;;;;5051307;28;20912;-61
2023/03/18 00:49:40;;;;;;;5.27;1.80;;;;;;;;;;5051573;28;20423;-61
2023/03/18 00:52:07;;;;;;;1.77;1.67;;;;;;;;;;5050718;28;20838;-61
2023/03/18 00:54:36;;;;;;;4.00;1.90;;;;;;;;;;5033482;28;20466;-61
2023/03/18 00:57:05;;;;;;;1.97;1.77;;;;;;;;;;5035697;28;20530;-61
2023/03/18 00:59:32;;;;;;;3.80;1.97;;;;;;;;;;5055633;28;20419;-61
2023/03/18 01:02:00;;;;;;;2.77;2.17;;;;;;;;;;5037024;28;20419;-61
2023/03/18 01:04:26;;;;;;;1.90;1.90;;;;;;;;;;5054879;28;20960;-62
2023/03/18 01:06:52;;;;;;;3.80;1.80;;;;;;;;;;5038067;28;20455;-61
2023/03/18 01:09:18;;;;;;;2.17;2.07;;;;;;;;;;5055213;28;20418;-61
2023/03/18 01:11:47;;;;;;;1.63;1.60;;;;;;;;;;5055336;28;20414;-61
2023/03/18 01:14:13;;;;;;;2.10;2.00;;;;;;;;;;5055096;28;20516;-61
2023/03/18 01:16:39;;;;;;;1.70;1.60;;;;;;;;;;5055230;28;20430;-61
2023/03/18 01:19:05;;;;;;;1.60;1.50;;;;;;;;;;5055165;28;20422;-61
2023/03/18 01:21:31;;;;;;;4.50;2.30;;;;;;;;;;5055276;28;20434;-61
2023/03/18 01:24:00;;;;;;;3.03;2.13;;;;;;;;;;5054977;28;20430;-61
2023/03/18 01:26:26;;;;;;;8.93;2.07;;;;;;;;;;5055071;28;20407;-61
2023/03/18 01:28:57;;;;;;;2.63;2.30;;;;;;;;;;5054962;28;20407;-62
2023/03/18 01:31:25;;;;;;;4.73;2.17;;;;;;;;;;5054970;28;20512;-62
2023/03/18 01:33:51;;;;;;;6.20;2.27;;;;;;;;;;5054548;28;20464;-62
2023/03/18 01:36:18;;;;;;;2.20;2.00;;;;;;;;;;5054845;28;20411;-61
2023/03/18 01:38:43;;;;;;;3.70;1.67;;;;;;;;;;5054431;28;20789;-61
2023/03/18 01:41:12;;;;;;;1.80;1.70;;;;;;;;;;5055107;28;20398;-61
2023/03/18 01:43:39;;;;;;;1.87;1.87;;;;;;;;;;5054506;28;20874;-61
2023/03/18 01:46:24;;;;;;;2.50;2.30;;;;;;;;;;5054819;28;20415;-61
2023/03/18 01:48:50;;;;;;;2.53;2.30;;;;;;;;;;5054536;28;20426;-61
2023/03/18 01:51:17;;;;;;;5.67;2.70;;;;;;;;;;5054764;28;20494;-61
2023/03/18 01:53:47;;;;;;;4.00;1.50;;;;;;;;;;5054608;28;20462;-62
2023/03/18 01:56:14;;;;;;;2.00;1.90;;;;;;;;;;5054590;28;20477;-60
2023/03/18 01:58:42;;;;;;;4.17;1.73;;;;;;;;;;5036408;28;20921;-60
2023/03/18 02:01:19;;;;;;;3.53;1.87;;;;;;;;;;5054628;28;20421;-61
2023/03/18 02:03:45;;;;;;;3.20;2.00;;;;;;;;;;5054568;28;20406;-61
2023/03/18 02:06:13;;;;;;;1.77;1.67;;;;;;;;;;5054206;28;20492;-62
2023/03/18 02:08:39;;;;;;;1.80;1.70;;;;;;;;;;5054423;28;20457;-62
2023/03/18 02:11:06;;;;;;;1.87;1.77;;;;;;;;;;5054214;28;20434;-61
2023/03/18 02:13:34;;;;;;;1.87;1.77;;;;;;;;;;5054198;28;20458;-62
2023/03/18 02:16:08;;;;;;;2.17;1.97;;;;;;;;;;5054245;28;20419;-61
2023/03/18 02:18:37;;;;;;;2.33;2.07;;;;;;;;;;5054244;28;20437;-61
2023/03/18 02:21:24;;;;;;;3.13;1.63;;;;;;;;;;5053954;28;20442;-61
2023/03/18 02:24:08;;;;;;;2.23;1.80;;;;;;;;;;5053715;28;20427;-62
2023/03/18 02:26:49;;;;;;;4.10;1.80;;;;;;;;;;5053811;28;20410;-62
2023/03/18 02:29:17;;;;;;;2.83;2.03;;;;;;;;;;5035762;28;20422;-61
2023/03/18 02:31:43;;;;;;;6.83;1.90;;;;;;;;;;5035630;28;20534;-61
2023/03/18 02:34:10;;;;;;;1.80;1.70;;;;;;;;;;5053577;28;20466;-61
2023/03/18 02:36:37;;;;;;;1.87;1.77;;;;;;;;;;5035476;28;20796;-61
2023/03/18 02:39:03;;;;;;;1.83;1.50;;;;;;;;;;5053370;28;20434;-61
2023/03/18 02:41:31;;;;;;;2.10;1.90;;;;;;;;;;5053644;28;20477;-61
2023/03/18 02:43:59;;;;;;;4.10;2.20;;;;;;;;;;5052869;28;20492;-61
2023/03/18 02:46:25;;;;;;;3.50;1.63;;;;;;;;;;5053198;28;20472;-62
2023/03/18 02:48:52;;;;;;;3.53;1.70;;;;;;;;;;5053076;28;20419;-61
2023/03/18 02:51:22;;;;;;;3.20;1.87;;;;;;;;;;5035515;28;20454;-61
2023/03/18 02:53:48;;;;;;;1.37;1.27;;;;;;;;;;5038549;28;20466;-62
2023/03/18 02:56:14;;;;;;;1.80;1.70;;;;;;;;;;5033256;28;20443;-62
2023/03/18 02:58:41;;;;;;;12.40;1.70;;;;;;;;;;5032921;28;20412;-60
2023/03/18 03:01:07;;;;;;;1.83;1.70;;;;;;;;;;5033135;28;20436;-62
2023/03/18 03:03:36;;;;;;;1.67;1.57;;;;;;;;;;5033279;28;20723;-62
2023/03/18 03:06:03;;;;;;;1.43;1.20;;;;;;;;;;5033643;28;20501;-61
2023/03/18 03:08:29;;;;;;;2.73;2.13;;;;;;;;;;5032597;28;20419;-61
2023/03/18 03:10:55;;;;;;;1.87;1.77;;;;;;;;;;5033221;28;20419;-61
2023/03/18 03:13:22;;;;;;;2.10;1.37;;;;;;;;;;5015002;28;20821;-63
2023/03/18 03:15:48;;;;;;;4.63;1.70;;;;;;;;;;5033295;28;20415;-62
2023/03/18 03:18:16;;;;;;;6.43;1.90;;;;;;;;;;5032469;28;20436;-61
2023/03/18 03:20:42;;;;;;;1.50;1.50;;;;;;;;;;5032686;28;20499;-61
2023/03/18 03:23:15;;;;;;;1.40;1.30;;;;;;;;;;5032746;28;20490;-60
2023/03/18 03:25:43;;;;;;;1.43;1.43;;;;;;;;;;5033015;28;20763;-62
2023/03/18 03:28:11;;;;;;;1.67;1.60;;;;;;;;;;5032231;28;20442;-61
2023/03/18 03:30:41;;;;;;;1.20;1.20;;;;;;;;;;5033020;28;20505;-61
2023/03/18 03:33:07;;;;;;;1.60;1.40;;;;;;;;;;5032329;28;20554;-62
2023/03/18 03:35:33;;;;;;;1.57;1.50;;;;;;;;;;5032508;28;20415;-60
2023/03/18 03:37:59;;;;;;;3.33;1.80;;;;;;;;;;5032579;28;20420;-61
2023/03/18 03:40:28;;;;;;;1.70;1.60;;;;;;;;;;5032405;28;20436;-62
2023/03/18 03:42:54;;;;;;;1.83;1.70;;;;;;;;;;5032287;28;20511;-61
2023/03/18 03:45:23;;;;;;;2.53;1.80;;;;;;;;;;5032253;28;20899;-60
2023/03/18 03:47:50;;;;;;;3.03;1.87;;;;;;;;;;5032349;28;20442;-60
2023/03/18 03:50:17;;;;;;;3.03;1.47;;;;;;;;;;5032428;28;20415;-61
2023/03/18 03:52:43;;;;;;;2.60;1.57;;;;;;;;;;5032707;28;20937;-61
2023/03/18 03:55:12;;;;;;;5.57;1.47;;;;;;;;;;5032452;28;20420;-61
2023/03/18 03:57:39;;;;;;;2.73;1.60;;;;;;;;;;5032386;28;20533;-61
2023/03/18 04:00:06;;;;;;;2.20;1.43;;;;;;;;;;5032882;28;20403;-61
2023/03/18 04:02:33;;;;;;;1.47;1.40;;;;;;;;;;5031728;28;20934;-61
2023/03/18 04:04:59;;;;;;;3.00;1.70;;;;;;;;;;5032351;28;20427;-61
2023/03/18 04:07:27;;;;;;;1.70;1.27;;;;;;;;;;5032051;28;20496;-61
2023/03/18 04:09:54;;;;;;;1.30;1.30;;;;;;;;;;5032086;28;20816;-61
2023/03/18 04:12:20;;;;;;;1.93;1.83;;;;;;;;;;5032229;28;20420;-61
2023/03/18 04:14:46;;;;;;;1.83;1.40;;;;;;;;;;5031974;28;20554;-61
2023/03/18 04:17:15;;;;;;;4.33;1.47;;;;;;;;;;5032333;28;20495;-62
2023/03/18 04:19:41;;;;;;;2.67;1.50;;;;;;;;;;5013715;28;20514;-61
2023/03/18 04:22:10;;;;;;;6.93;1.77;;;;;;;;;;5032147;28;20423;-61
2023/03/18 04:24:38;;;;;;;2.80;1.57;;;;;;;;;;5014472;28;20443;-62
2023/03/18 04:27:07;;;;;;;1.77;1.67;;;;;;;;;;5032043;28;20917;-62
2023/03/18 04:29:33;;;;;;;2.53;1.93;;;;;;;;;;5031762;28;20416;-62
2023/03/18 04:31:58;;;;;;;1.97;1.87;;;;;;;;;;5034480;28;20514;-60
2023/03/18 04:34:27;;;;;;;1.33;1.33;;;;;;;;;;5018469;28;20458;-61
2023/03/18 04:36:54;;;;;;;1.40;1.30;;;;;;;;;;5035884;28;20503;-62
2023/03/18 04:39:20;;;;;;;1.80;1.70;;;;;;;;;;5036389;28;20391;-61
2023/03/18 04:41:46;;;;;;;1.47;1.37;;;;;;;;;;5036203;28;20415;-61
2023/03/18 04:44:12;;;;;;;5.50;1.57;;;;;;;;;;5035981;28;20431;-60
2023/03/18 04:46:41;;;;;;;2.80;1.67;;;;;;;;;;5018642;28;20432;-60
2023/03/18 04:49:07;;;;;;;1.47;1.40;;;;;;;;;;5036115;28;20432;-60
2023/03/18 04:51:33;;;;;;;6.00;1.90;;;;;;;;;;5035867;28;20444;-60
2023/03/18 04:54:01;;;;;;;1.03;1.03;;;;;;;;;;5035640;28;21001;-62
2023/03/18 04:56:27;;;;;;;6.40;1.60;;;;;;;;;;5035583;28;20514;-61
2023/03/18 04:58:53;;;;;;;3.27;1.20;;;;;;;;;;5035415;28;20974;-61
2023/03/18 05:01:22;;;;;;;2.93;1.77;;;;;;;;;;5016746;28;20431;-61
2023/03/18 05:03:50;;;;;;;1.83;1.50;;;;;;;;;;5035148;28;20454;-61
2023/03/18 05:06:25;;;;;;;1.67;1.53;;;;;;;;;;5017833;28;20426;-61
2023/03/18 05:08:53;;;;;;;2.47;1.13;;;;;;;;;;5035271;28;20477;-62
2023/03/18 05:11:20;;;;;;;2.40;1.30;;;;;;;;;;5017577;28;20446;-61
2023/03/18 05:13:46;;;;;;;3.43;1.70;;;;;;;;;;5017509;28;20466;-61
2023/03/18 05:16:12;;;;;;;8.73;1.93;;;;;;;;;;5034998;28;20527;-62
2023/03/18 05:18:40;;;;;;;1.20;1.10;;;;;;;;;;5035250;28;20938;-61
2023/03/18 05:21:10;;;;;;;1.70;1.60;;;;;;;;;;5034903;28;20450;-61
2023/03/18 05:23:39;;;;;;;2.30;1.47;;;;;;;;;;5035030;28;20886;-61
2023/03/18 05:26:05;;;;;;;1.67;1.40;;;;;;;;;;5035138;28;20463;-61
2023/03/18 05:28:32;;;;;;;1.23;1.23;;;;;;;;;;5035148;28;20438;-62
2023/03/18 05:30:58;;;;;;;2.80;1.13;;;;;;;;;;5035030;28;20411;-62
2023/03/18 05:33:24;;;;;;;2.00;1.57;;;;;;;;;;5035238;28;20455;-61
2023/03/18 05:35:50;;;;;;;2.87;1.20;;;;;;;;;;5034589;28;20469;-60
2023/03/18 05:38:17;;;;;;;2.30;1.60;;;;;;;;;;5017130;28;20517;-61
2023/03/18 05:40:43;;;;;;;1.73;1.63;;;;;;;;;;5034337;28;20464;-62
2023/03/18 05:43:10;;;;;;;1.27;1.17;;;;;;;;;;5016245;28;20463;-61
2023/03/18 05:45:36;;;;;;;6.03;1.87;;;;;;;;;;5034671;28;20510;-62
2023/03/18 05:48:02;;;;;;;2.30;1.60;;;;;;;;;;5034735;28;20443;-61
2023/03/18 05:50:29;;;;;;;3.67;1.70;;;;;;;;;;5034115;28;20526;-61
2023/03/18 05:52:55;;;;;;;1.60;1.50;;;;;;;;;;5034845;28;20498;-61
2023/03/18 05:55:24;;;;;;;1.40;1.40;;;;;;;;;;5034369;28;20826;-61
2023/03/18 05:57:50;;;;;;;3.23;1.87;;;;;;;;;;5034486;28;20746;-61
2023/03/18 06:00:17;;;;;;;1.60;1.50;;;;;;;;;;5034339;28;20505;-62
2023/03/18 06:02:46;;;;;;;3.43;1.57;;;;;;;;;;5034324;28;20416;-60
2023/03/18 06:05:12;;;;;;;5.53;3.67;;;;;;;;;;5034150;28;20442;-61
2023/03/18 06:07:38;;;;;;;2.53;2.37;;;;;;;;;;5034161;28;20427;-61
2023/03/18 06:10:07;;;;;;;1.40;1.30;;;;;;;;;;5034171;28;20798;-61
2023/03/18 06:12:33;;;;;;;1.33;1.33;;;;;;;;;;5034298;28;20420;-61
2023/03/18 06:14:59;;;;;;;2.93;1.40;;;;;;;;;;5033486;28;20974;-62
2023/03/18 06:17:26;;;;;;;1.60;1.50;;;;;;;;;;5034174;28;20430;-61
2023/03/18 06:19:55;;;;;;;1.30;1.30;;;;;;;;;;5033311;28;20495;-61
2023/03/18 06:22:22;;;;;;;1.77;1.57;;;;;;;;;;5015197;28;20447;-61
2023/03/18 06:24:50;;;;;;;5.97;1.40;;;;;;;;;;5033362;28;20439;-61
2023/03/18 06:27:16;;;;;;;1.27;1.17;;;;;;;;;;5032691;28;20447;-61
2023/03/18 06:29:42;;;;;;;1.10;1.10;;;;;;;;;;5015083;28;20431;-62
2023/03/18 06:32:09;;;;;;;5.57;2.00;;;;;;;;;;5032967;28;20834;-61
2023/03/18 06:34:35;;;;;;;2.50;2.37;;;;;;;;;;5033546;28;20802;-61
2023/03/18 06:37:01;;;;;;;4.93;1.47;;;;;;;;;;5015221;28;20438;-61
2023/03/18 06:39:30;;;;;;;1.37;1.27;;;;;;;;;;5033314;28;20842;-62
2023/03/18 06:41:56;;;;;;;1.40;1.37;;;;;;;;;;5033297;28;20836;-61
2023/03/18 06:44:23;;;;;;;3.63;2.17;;;;;;;;;;5033133;28;20431;-61
2023/03/18 06:46:49;;;;;;;2.40;2.30;;;;;;;;;;5033155;28;20470;-62
2023/03/18 06:49:16;;;;;;;1.23;1.23;;;;;;;;;;5032463;28;20918;-61
2023/03/18 06:51:45;;;;;;;2.03;1.17;;;;;;;;;;5033191;28;20478;-61
2023/03/18 06:54:13;;;;;;;2.40;1.33;;;;;;;;;;5032496;28;20521;-62
2023/03/18 06:56:42;;;;;;;1.37;1.10;;;;;;;;;;5032994;28;20427;-61
2023/03/18 06:59:09;;;;;;;3.43;1.40;;;;;;;;;;5033054;28;20419;-61
2023/03/18 07:01:36;;;;;;;1.40;1.30;;;;;;;;;;5032541;28;20412;-61
2023/03/18 07:04:02;;;;;;;1.30;1.30;;;;;;;;;;5032839;28;20416;-62
2023/03/18 07:06:29;;;;;;;2.13;1.20;;;;;;;;;;5033074;28;20939;-61
2023/03/18 07:08:56;;;;;;;1.53;1.27;;;;;;;;;;5032919;28;20412;-61
2023/03/18 07:11:22;;;;;;;2.80;2.60;;;;;;;;;;5032249;28;20454;-62
2023/03/18 07:13:48;;;;;;;2.93;1.50;;;;;;;;;;5032585;28;20563;-61
2023/03/18 07:16:14;;;;;;;2.23;2.03;;;;;;;;;;5032900;28;20415;-61
2023/03/18 07:18:41;;;;;;;2.83;1.73;;;;;;;;;;5032335;28;20404;-61
2023/03/18 07:21:08;;;;;;;1.20;1.13;;;;;;;;;;5032651;28;20439;-61
2023/03/18 07:23:37;;;;;;;2.60;1.77;;;;;;;;;;5032813;28;20986;-60
2023/03/18 07:26:04;;;;;;;1.17;1.10;;;;;;;;;;5032855;28;20400;-60
2023/03/18 07:28:30;;;;;;;1.67;1.20;;;;;;;;;;5032354;28;20474;-60
2023/03/18 07:30:58;;;;;;;1.53;1.43;;;;;;;;;;5015254;28;20451;-60
2023/03/18 07:33:24;;;;;;;1.67;1.30;;;;;;;;;;5032218;28;20839;-60
2023/03/18 07:35:50;;;;;;;1.63;1.40;;;;;;;;;;5032160;28;20411;-60
2023/03/18 07:38:17;;;;;;;6.23;1.87;;;;;;;;;;5014501;28;20415;-60
2023/03/18 07:40:43;;;;;;;3.43;1.27;;;;;;;;;;5032373;28;20439;-60
2023/03/18 07:43:11;;;;;;;3.10;2.90;;;;;;;;;;5015013;28;20494;-61
2023/03/18 07:45:37;;;;;;;1.50;1.40;;;;;;;;;;5032680;28;20531;-60
2023/03/18 07:48:04;;;;;;;1.67;1.40;;;;;;;;;;5032727;28;20528;-60
2023/03/18 07:50:30;;;;;;;2.57;1.37;;;;;;;;;;5032672;28;20490;-60
2023/03/18 07:52:56;;;;;;;2.10;0.90;;;;;;;;;;5032059;28;20507;-61
2023/03/18 07:55:25;;;;;;;1.70;1.30;;;;;;;;;;5032374;28;20430;-60
2023/03/18 07:57:51;;;;;;;2.93;1.30;;;;;;;;;;5032375;28;20438;-60
2023/03/18 08:00:17;;;;;;;4.00;1.50;;;;;;;;;;5032163;28;20420;-61
2023/03/18 08:02:43;;;;;;;2.30;1.47;;;;;;;;;;5032525;28;21023;-61
2023/03/18 08:05:09;;;;;;;1.50;1.40;;;;;;;;;;5032449;28;20819;-60
2023/03/18 08:07:36;;;;;;;3.17;1.63;;;;;;;;;;5032481;28;20414;-60
2023/03/18 08:10:03;;;;;;;1.10;1.10;;;;;;;;;;5032680;28;20410;-60
2023/03/18 08:12:29;;;;;;;2.73;1.23;;;;;;;;;;5032268;28;20891;-60
2023/03/18 08:14:55;;;;;;;1.50;1.40;;;;;;;;;;5032390;28;20480;-60
2023/03/18 08:17:21;;;;;;;3.60;1.23;;;;;;;;;;5032339;28;20783;-60
2023/03/18 08:19:47;;;;;;;2.03;1.50;;;;;;;;;;5014735;28;20449;-60
2023/03/18 08:22:16;;;;;;;1.80;1.70;;;;;;;;;;5014710;28;20422;-60
2023/03/18 08:24:44;;;;;;;2.83;1.20;;;;;;;;;;5014156;28;20952;-60
2023/03/18 08:27:10;;;;;;;1.07;1.07;;;;;;;;;;5014827;28;20428;-60
2023/03/18 08:29:38;;;;;;;1.20;1.20;;;;;;;;;;5032267;28;20508;-60
2023/03/18 08:32:07;;;;;;;4.10;1.20;;;;;;;;;;5014702;28;20425;-61
2023/03/18 08:34:35;;;;;;;3.53;1.40;;;;;;;;;;5032068;28;21041;-61
2023/03/18 08:37:01;;;;;;;2.33;1.50;;;;;;;;;;5032375;28;20396;-61
2023/03/18 08:39:27;;;;;;;3.30;1.60;;;;;;;;;;5032208;28;20421;-60
2023/03/18 08:41:54;;;;;;;1.20;1.10;;;;;;;;;;5032266;28;20522;-60
2023/03/18 08:44:20;;;;;;;4.90;1.47;;;;;;;;;;5031959;28;20432;-60
2023/03/18 08:46:46;;;;;;;1.77;1.40;;;;;;;;;;5032140;28;20473;-60
2023/03/18 08:49:12;;;;;;;3.17;2.93;;;;;;;;;;5032025;28;20823;-63
2023/03/18 08:51:42;;;;;;;4.97;1.70;;;;;;;;;;5031750;28;20763;-61
2023/03/18 08:54:10;;;;;;;1.30;1.20;;;;;;;;;;5031719;28;20472;-60
2023/03/18 08:56:37;;;;;;;2.30;1.27;;;;;;;;;;5031992;28;20410;-60
2023/03/18 08:59:02;;;;;;;1.33;1.23;;;;;;;;;;5031725;28;20413;-60
2023/03/18 09:01:29;;;;;;;2.13;1.17;;;;;;;;;;5031832;28;20405;-61
2023/03/18 09:03:58;;;;;;;1.70;1.60;;;;;;;;;;5032042;28;20960;-60
2023/03/18 09:06:28;;;;;;;4.30;2.00;;;;;;;;;;5014314;28;20442;-61
2023/03/18 09:08:54;;;;;;;1.53;1.30;;;;;;;;;;5031909;28;20918;-60
2023/03/18 09:11:20;;;;;;;4.10;1.10;;;;;;;;;;5031967;28;20437;-60
2023/03/18 09:13:46;;;;;;;3.03;1.20;;;;;;;;;;5031795;28;20469;-60
2023/03/18 09:16:12;;;;;;;2.10;1.97;;;;;;;;;;5031691;28;20414;-61
2023/03/18 09:18:39;;;;;;;1.97;1.90;;;;;;;;;;5034866;28;20411;-61
2023/03/18 09:21:05;;;;;;;1.63;1.53;;;;;;;;;;5035563;28;20449;-61
2023/03/18 09:23:33;;;;;;;1.57;1.43;;;;;;;;;;5017549;28;20455;-60
2023/03/18 09:25:59;;;;;;;3.37;1.60;;;;;;;;;;5035391;28;20443;-61
2023/03/18 09:28:25;;;;;;;2.03;1.27;;;;;;;;;;5035176;28;20423;-61
2023/03/18 09:30:51;;;;;;;1.97;1.40;;;;;;;;;;5035270;28;20500;-60
2023/03/18 09:33:18;;;;;;;2.10;1.53;;;;;;;;;;5035323;28;20462;-64
2023/03/18 09:35:44;;;;;;;4.10;2.00;;;;;;;;;;5031351;28;20780;-60
2023/03/18 09:38:14;;;;;;;1.40;1.30;;;;;;;;;;5024430;28;20505;-60
2023/03/18 09:40:45;;;;;;;6.73;1.53;;;;;;;;;;5024868;28;20450;-61
2023/03/18 09:43:23;;;;;;;2.03;1.93;;;;;;;;;;5023916;28;20850;-60
2023/03/18 09:46:12;;;;;;;4.67;1.70;;;;;;;;;;5023338;28;20868;-60
2023/03/18 09:48:38;;;;;;;1.80;1.70;;;;;;;;;;4998143;28;20464;-60
2023/03/18 09:51:13;;;;;;;2.97;1.93;;;;;;;;;;5022803;28;20469;-60
2023/03/18 09:53:44;;;;;;;4.30;1.80;;;;;;;;;;5022745;28;20458;-60
2023/03/18 09:56:14;;;;;;;1.70;1.60;;;;;;;;;;5023552;28;20527;-59
2023/03/18 09:58:46;;;;;;;3.73;1.80;;;;;;;;;;5022823;28;20516;-60
2023/03/18 10:01:12;;;;;;;2.77;1.57;;;;;;;;;;5021254;28;20446;-61
2023/03/18 10:03:45;;;;;;;2.10;1.70;;;;;;;;;;4997410;28;20506;-60
2023/03/18 10:06:21;;;;;;;2.17;1.90;;;;;;;;;;5014964;28;20445;-60
2023/03/18 10:09:06;;;;;;;2.00;1.77;;;;;;;;;;5014841;28;20414;-61
2023/03/18 10:11:43;;;;;;;1.73;1.63;;;;;;;;;;5014854;28;20487;-60
2023/03/18 10:14:12;;;;;;;2.80;2.10;;;;;;;;;;5014734;28;20483;-61
2023/03/18 10:16:48;;;;;;;1.57;1.43;;;;;;;;;;5014507;28;20409;-61
2023/03/18 10:19:14;;;;;;;2.50;1.77;;;;;;;;;;5014662;28;20417;-61
2023/03/18 10:21:40;;;;;;;3.60;1.70;;;;;;;;;;5014542;28;20445;-61
2023/03/18 10:24:07;;;;;;;4.37;2.40;;;;;;;;;;5014487;28;20450;-61
2023/03/18 10:26:51;;;;;;;1.63;1.47;;;;;;;;;;5014338;28;20421;-61
2023/03/18 10:29:22;;;;;;;2.57;1.90;;;;;;;;;;4995873;28;20422;-61
2023/03/18 10:32:08;;;;;;;1.67;1.57;;;;;;;;;;5014170;28;20447;-61
2023/03/18 10:34:46;;;;;;;3.53;1.90;;;;;;;;;;5014404;28;20467;-61
2023/03/18 10:37:35;;;;;;;3.33;2.37;;;;;;;;;;5014157;28;20911;-60
2023/03/18 10:40:01;;;;;;;4.17;2.03;;;;;;;;;;5014242;28;20421;-60
2023/03/18 10:42:29;;;;;;;1.60;1.50;;;;;;;;;;5014443;28;20408;-60
2023/03/18 10:45:16;;;;;;;1.73;1.63;;;;;;;;;;5014126;28;20956;-60
2023/03/18 10:47:49;;;;;;;2.70;2.10;;;;;;;;;;5013979;28;20539;-60
2023/03/18 10:50:25;;;;;;;7.17;2.30;;;;;;;;;;5014127;28;20453;-61
2023/03/18 10:53:14;;;;;;;2.60;1.90;;;;;;;;;;5014013;28;20460;-60
2023/03/18 10:55:50;;;;;;;2.93;1.70;;;;;;;;;;5004152;28;20779;-60
2023/03/18 10:58:18;;;;;;;5.90;1.80;;;;;;;;;;5014117;28;20454;-61
2023/03/18 11:00:44;;;;;;;3.80;1.90;;;;;;;;;;5013998;28;20810;-61
2023/03/18 11:03:20;;;;;;;5.43;1.77;;;;;;;;;;4996216;28;20843;-61
2023/03/18 11:05:46;;;;;;;1.90;1.60;;;;;;;;;;5014120;28;20422;-60
2023/03/18 11:08:27;;;;;;;5.03;2.50;;;;;;;;;;5013730;28;20422;-60
2023/03/18 11:10:54;;;;;;;3.30;2.10;;;;;;;;;;5013655;28;20946;-60
2023/03/18 11:13:24;;;;;;;3.13;2.33;;;;;;;;;;5013746;28;20666;-60
2023/03/18 11:15:55;;;;;;;2.80;2.10;;;;;;;;;;5013735;28;20899;-60
2023/03/18 11:18:22;;;;;;;2.30;1.77;;;;;;;;;;5013670;28;20826;-60
2023/03/18 11:20:54;;;;;;;4.33;2.30;;;;;;;;;;5013610;28;20437;-60
2023/03/18 11:23:47;;;;;;;2.10;1.90;;;;;;;;;;5013690;28;20397;-60
2023/03/18 11:26:22;;;;;;;1.90;1.80;;;;;;;;;;5013379;28;20412;-60
2023/03/18 11:28:50;;;;;;;1.93;1.93;;;;;;;;;;5013528;28;20428;-60
2023/03/18 11:31:18;;;;;;;3.13;1.83;;;;;;;;;;5013235;28;20416;-60
2023/03/18 11:33:44;;;;;;;1.77;1.70;;;;;;;;;;5013309;28;20530;-61
2023/03/18 11:36:20;;;;;;;3.77;2.40;;;;;;;;;;5013293;28;20415;-61
2023/03/18 11:38:55;;;;;;;2.43;2.33;;;;;;;;;;4995875;28;20422;-60
2023/03/18 11:41:26;;;;;;;2.07;1.67;;;;;;;;;;5012742;28;20444;-61
2023/03/18 11:43:55;;;;;;;1.93;1.83;;;;;;;;;;5012623;28;20442;-61
2023/03/18 11:46:23;;;;;;;2.60;1.87;;;;;;;;;;5013041;28;20421;-61
2023/03/18 11:48:49;;;;;;;2.10;2.00;;;;;;;;;;5013005;28;20541;-62
2023/03/18 11:51:37;;;;;;;2.03;1.30;;;;;;;;;;5013080;28;20420;-61
2023/03/18 11:54:06;;;;;;;7.40;1.63;;;;;;;;;;5013075;28;20459;-61
2023/03/18 11:56:35;;;;;;;1.63;1.53;;;;;;;;;;5012786;28;20408;-62
2023/03/18 11:59:10;;;;;;;3.77;1.83;;;;;;;;;;5012996;28;20448;-62
2023/03/18 12:02:03;;;;;;;1.90;1.80;;;;;;;;;;4995073;28;20474;-62
2023/03/18 12:04:32;;;;;;;1.60;1.50;;;;;;;;;;4983467;28;20428;-61
2023/03/18 12:07:07;;;;;;;4.27;1.87;;;;;;;;;;5012869;28;20450;-61
2023/03/18 12:09:55;;;;;;;1.53;1.37;;;;;;;;;;5012852;28;20414;-62
2023/03/18 12:12:30;;;;;;;2.83;1.30;;;;;;;;;;5001550;28;20441;-61
2023/03/18 12:14:56;;;;;;;2.30;1.83;;;;;;;;;;5052343;28;20518;-61
2023/03/18 12:17:48;;;;;;;2.03;1.93;;;;;;;;;;5052221;28;20422;-61
2023/03/18 12:20:32;;;;;;;6.43;1.80;;;;;;;;;;5052137;28;20897;-61
2023/03/18 12:23:02;;;;;;;4.60;1.90;;;;;;;;;;5052182;28;20434;-61
2023/03/18 12:25:31;;;;;;;1.50;1.43;;;;;;;;;;5052056;28;20503;-61
2023/03/18 12:27:57;;;;;;;1.70;1.60;;;;;;;;;;5051964;28;20507;-61
2023/03/18 12:30:32;;;;;;;1.20;1.10;;;;;;;;;;5052074;28;20908;-61
2023/03/18 12:33:22;;;;;;;2.80;1.47;;;;;;;;;;5051987;28;20765;-61
2023/03/18 12:36:01;;;;;;;1.80;1.70;;;;;;;;;;5039171;28;20428;-61
2023/03/18 12:38:48;;;;;;;1.60;1.50;;;;;;;;;;5052299;28;20513;-61
2023/03/18 12:41:19;;;;;;;3.57;1.50;;;;;;;;;;5051854;28;20430;-61
2023/03/18 12:43:45;;;;;;;2.00;1.90;;;;;;;;;;5051936;28;20456;-61
2023/03/18 12:46:20;;;;;;;1.40;1.40;;;;;;;;;;5051943;28;20406;-61
2023/03/18 12:49:06;;;;;;;1.73;1.63;;;;;;;;;;5052032;28;20455;-61
2023/03/18 12:51:42;;;;;;;2.67;1.50;;;;;;;;;;5001795;28;20502;-61
2023/03/18 12:54:12;;;;;;;2.63;1.70;;;;;;;;;;5055836;28;20441;-61
2023/03/18 12:56:42;;;;;;;2.00;1.50;;;;;;;;;;5056105;28;20446;-61
2023/03/18 12:59:12;;;;;;;2.20;1.80;;;;;;;;;;5055705;28;20430;-61
2023/03/18 13:01:40;;;;;;;5.90;1.83;;;;;;;;;;5055911;28;20430;-61
2023/03/18 13:04:10;;;;;;;2.47;1.40;;;;;;;;;;5055645;28;20441;-61
2023/03/18 13:06:36;;;;;;;1.80;1.53;;;;;;;;;;5055731;28;20422;-61
2023/03/18 13:09:07;;;;;;;1.87;1.77;;;;;;;;;;5055677;28;20491;-61
2023/03/18 13:11:38;;;;;;;23.83;2.20;;;;;;;;;;5055494;28;20413;-61
2023/03/18 13:14:14;;;;;;;1.67;1.57;;;;;;;;;;5055526;28;20465;-61
2023/03/18 13:16:40;;;;;;;4.43;1.93;;;;;;;;;;5037746;28;20411;-61
2023/03/18 13:19:11;;;;;;;2.40;1.80;;;;;;;;;;5055458;28;20427;-61
2023/03/18 13:21:40;;;;;;;2.30;1.30;;;;;;;;;;5055497;28;20537;-61
2023/03/18 13:24:15;;;;;;;2.30;1.90;;;;;;;;;;5055239;28;20463;-60
2023/03/18 13:27:00;;;;;;;1.60;1.50;;;;;;;;;;5055201;28;20928;-60
2023/03/18 13:29:45;;;;;;;3.90;1.70;;;;;;;;;;5037278;28;20443;-61
2023/03/18 13:32:30;;;;;;;1.60;1.50;;;;;;;;;;5055254;28;20433;-61
2023/03/18 13:35:15;;;;;;;2.00;1.90;;;;;;;;;;5055025;28;20473;-61
2023/03/18 13:38:10;;;;;;;1.40;1.30;;;;;;;;;;5055054;28;20456;-61
2023/03/18 13:40:56;;;;;;;1.70;1.50;;;;;;;;;;5034488;28;20425;-61
2023/03/18 13:43:25;;;;;;;1.83;1.73;;;;;;;;;;5054867;28;20428;-61
2023/03/18 13:45:52;;;;;;;2.40;1.57;;;;;;;;;;5055067;28;20469;-61
2023/03/18 13:48:21;;;;;;;2.33;2.23;;;;;;;;;;5054908;28;20525;-61
2023/03/18 13:50:48;;;;;;;1.87;1.77;;;;;;;;;;5054944;28;20828;-61
2023/03/18 13:53:20;;;;;;;3.33;2.10;;;;;;;;;;5054698;28;20492;-61
2023/03/18 13:55:49;;;;;;;1.67;1.57;;;;;;;;;;5055049;28;20410;-61
2023/03/18 13:58:20;;;;;;;4.57;1.60;;;;;;;;;;5054799;28;20434;-61
2023/03/18 14:00:55;;;;;;;2.03;1.57;;;;;;;;;;5054644;28;20589;-61
2023/03/18 14:03:30;;;;;;;3.30;1.40;;;;;;;;;;5054223;28;20518;-61
2023/03/18 14:06:09;;;;;;;3.40;1.70;;;;;;;;;;5054618;28;20425;-61
2023/03/18 14:08:38;;;;;;;1.43;1.33;;;;;;;;;;5054394;28;20435;-61
2023/03/18 14:11:18;;;;;;;3.43;1.40;;;;;;;;;;5054616;28;20421;-61
2023/03/18 14:13:46;;;;;;;1.57;1.57;;;;;;;;;;5054306;28;20461;-61
2023/03/18 14:16:13;;;;;;;1.50;1.50;;;;;;;;;;5054536;28;20479;-61
2023/03/18 14:18:40;;;;;;;1.80;1.70;;;;;;;;;;5054299;28;20481;-61
2023/03/18 14:21:22;;;;;;;3.80;1.70;;;;;;;;;;5054363;28;20421;-61
2023/03/18 14:24:00;;;;;;;1.83;1.73;;;;;;;;;;5054152;28;20932;-61
2023/03/18 14:26:26;;;;;;;5.93;2.70;;;;;;;;;;5054349;28;20399;-61
2023/03/18 14:28:55;;;;;;;4.27;3.90;;;;;;;;;;5054024;28;20949;-61
2023/03/18 14:31:42;;;;;;;3.97;3.77;;;;;;;;;;5054099;28;20423;-61
2023/03/18 14:34:17;;;;;;;2.30;2.10;;;;;;;;;;5054028;28;20580;-61
2023/03/18 14:36:43;;;;;;;3.67;2.13;;;;;;;;;;5054751;28;20790;-61
2023/03/18 14:39:13;;;;;;;1.80;1.70;;;;;;;;;;5054105;28;20944;-61
2023/03/18 14:41:43;;;;;;;1.70;1.60;;;;;;;;;;5053788;28;20418;-61
2023/03/18 14:44:20;;;;;;;3.07;1.87;;;;;;;;;;5036483;28;20491;-61
2023/03/18 14:46:49;;;;;;;2.30;2.03;;;;;;;;;;5053994;28;20513;-61
2023/03/18 14:49:27;;;;;;;2.30;1.73;;;;;;;;;;5053825;28;20990;-61
2023/03/18 14:51:53;;;;;;;1.83;1.70;;;;;;;;;;5053809;28;20416;-61
2023/03/18 14:54:22;;;;;;;1.70;1.60;;;;;;;;;;5053686;28;20473;-62
2023/03/18 14:56:53;;;;;;;4.57;2.07;;;;;;;;;;5053822;28;20412;-62